Time;durP1;ratioP1;P1;durP2;ratioP2;P2;SDS_P1;SDS_P2;PMS_P1;PMS_P2;Temp;Humidity;BMP_temperature;BMP_pressure;BME280_temperature;BME280_humidity;BME280_pressure;Samples;Min_cycle;Max_cycle;Signal;HPM_P1;HPM_P2
2022/03/21 00:00:45;;;;;;;19.98;4.30;;;;;;;8.73;43.22;100852.00;5026600;28;20064;-72
2022/03/21 00:03:13;;;;;;;16.13;4.28;;;;;;;8.69;43.13;100848.09;5027358;28;20053;-71
2022/03/21 00:05:40;;;;;;;17.45;4.40;;;;;;;8.71;43.30;100845.13;5022543;28;20041;-72
2022/03/21 00:08:06;;;;;;;18.80;4.18;;;;;;;8.68;43.31;100851.03;5024143;28;20053;-71
2022/03/21 00:10:36;;;;;;;14.50;4.20;;;;;;;8.65;43.34;100855.91;5018321;28;20053;-72
2022/03/21 00:13:03;;;;;;;16.92;5.13;;;;;;;8.66;43.51;100859.44;5021380;28;20497;-72
2022/03/21 00:15:31;;;;;;;15.73;4.40;;;;;;;8.60;43.56;100860.41;5014586;28;20529;-73
2022/03/21 00:17:57;;;;;;;15.82;4.53;;;;;;;8.60;43.75;100852.22;5022571;28;20140;-73
2022/03/21 00:20:23;;;;;;;17.05;4.10;;;;;;;8.50;43.64;100844.63;5026052;28;20057;-71
2022/03/21 00:22:52;;;;;;;17.00;4.55;;;;;;;8.56;43.77;100846.41;5022957;28;20049;-72
2022/03/21 00:25:19;;;;;;;16.98;4.70;;;;;;;8.55;43.71;100836.56;5019318;28;21609;-68
2022/03/21 00:27:46;;;;;;;14.82;4.07;;;;;;;8.48;44.03;100831.19;5025490;28;20561;-67
2022/03/21 00:30:15;;;;;;;13.52;4.13;;;;;;;8.52;43.74;100834.31;5025225;28;20136;-68
2022/03/21 00:32:42;;;;;;;15.52;4.30;;;;;;;8.48;44.00;100844.00;5015595;28;20520;-66
2022/03/21 00:35:12;;;;;;;10.48;3.40;;;;;;;8.49;44.10;100832.03;5020097;28;20592;-69
2022/03/21 00:37:39;;;;;;;17.63;4.80;;;;;;;8.38;44.20;100822.78;5018983;28;20048;-66
2022/03/21 00:40:08;;;;;;;15.02;4.03;;;;;;;8.33;44.43;100822.66;5023790;28;20529;-68
2022/03/21 00:42:35;;;;;;;15.68;4.10;;;;;;;8.16;44.48;100795.28;5023443;28;20068;-68
2022/03/21 00:45:01;;;;;;;;;;;;;;;8.35;44.38;100824.09;5023631;28;20072;-68
2022/03/21 00:47:31;;;;;;;13.80;3.63;;;;;;;8.31;44.30;100819.34;5019978;28;19926;-68
2022/03/21 00:49:57;;;;;;;17.77;4.10;;;;;;;8.17;44.88;100808.66;5019936;28;20492;-68
2022/03/21 00:52:24;;;;;;;15.85;3.88;;;;;;;8.25;44.72;100817.56;5024238;28;20140;-68
2022/03/21 00:54:50;;;;;;;18.33;4.50;;;;;;;8.29;44.48;100827.75;5027498;28;20064;-67
2022/03/21 00:57:16;;;;;;;16.10;4.28;;;;;;;8.27;44.60;100823.59;5022040;28;20053;-67
2022/03/21 00:59:43;;;;;;;15.93;3.83;;;;;;;8.23;44.70;100832.25;5024073;28;20469;-67
2022/03/21 01:02:09;;;;;;;14.50;3.55;;;;;;;8.19;44.63;100822.84;5023239;28;20045;-68
2022/03/21 01:04:36;;;;;;;15.18;4.30;;;;;;;8.17;44.91;100822.25;5030620;28;20051;-67
2022/03/21 01:07:02;;;;;;;17.65;4.38;;;;;;;8.14;44.77;100830.09;5023652;28;20060;-66
2022/03/21 01:09:28;;;;;;;17.83;4.20;;;;;;;8.11;44.89;100825.09;5023404;28;20072;-65
2022/03/21 01:11:54;;;;;;;11.52;3.60;;;;;;;8.13;44.75;100829.25;5020726;28;20606;-67
2022/03/21 01:14:21;;;;;;;13.32;3.30;;;;;;;8.11;45.03;100838.72;5031002;28;20133;-66
2022/03/21 01:16:50;;;;;;;15.00;4.00;;;;;;;8.08;45.04;100837.31;5025083;28;20402;-70
2022/03/21 01:19:16;;;;;;;17.67;4.25;;;;;;;8.03;45.30;100827.09;5024052;28;20823;-70
2022/03/21 01:21:42;;;;;;;14.05;3.55;;;;;;;7.98;45.41;100823.41;5024834;28;20149;-71
2022/03/21 01:24:08;;;;;;;14.20;4.05;;;;;;;7.99;45.23;100817.75;5026120;28;20045;-70
2022/03/21 01:26:34;;;;;;;16.02;3.80;;;;;;;8.02;45.20;100820.00;5023037;28;20143;-71
2022/03/21 01:29:00;;;;;;;15.63;3.97;;;;;;;7.85;45.24;100786.31;5030324;28;20045;-71
2022/03/21 01:31:27;;;;;;;13.82;3.58;;;;;;;7.96;45.44;100810.03;5024204;28;20104;-71
2022/03/21 01:33:54;;;;;;;20.98;3.85;;;;;;;7.93;45.44;100815.94;5027308;28;20057;-71
2022/03/21 01:36:20;;;;;;;14.93;3.65;;;;;;;7.91;45.62;100810.72;5023893;28;20042;-70
2022/03/21 01:38:46;;;;;;;16.20;4.07;;;;;;;7.80;45.59;100803.34;5028273;28;20049;-70
2022/03/21 01:41:13;;;;;;;15.60;3.60;;;;;;;7.83;45.60;100816.50;5021372;28;20584;-71
2022/03/21 01:43:55;;;;;;;12.45;3.40;;;;;;;7.84;45.72;100818.16;5023715;28;20053;-71
2022/03/21 01:46:21;;;;;;;14.27;3.63;;;;;;;7.87;45.61;100816.88;5023635;28;20111;-70
2022/03/21 01:48:47;;;;;;;16.08;3.85;;;;;;;7.82;45.60;100817.56;5030649;28;20091;-70
2022/03/21 01:51:15;;;;;;;13.68;4.55;;;;;;;7.76;45.77;100811.13;5027599;28;20056;-70
2022/03/21 01:56:27;;;;;;;17.98;4.10;;;;;;;7.77;45.93;100795.66;5038057;28;20049;-65
2022/03/21 01:58:53;;;;;;;17.00;3.45;;;;;;;7.78;45.95;100805.47;5031379;28;20045;-67
2022/03/21 02:01:19;;;;;;;13.15;3.40;;;;;;;7.72;45.95;100804.50;5029871;28;20049;-67
2022/03/21 02:03:46;;;;;;;23.42;4.15;;;;;;;7.72;45.95;100815.41;5021794;28;20418;-66
2022/03/21 02:06:12;;;;;;;16.55;3.75;;;;;;;7.74;45.99;100826.88;5022184;28;20041;-66
2022/03/21 02:08:39;;;;;;;15.48;3.90;;;;;;;7.64;46.11;100819.28;5000586;28;20046;-66
2022/03/21 02:11:06;;;;;;;14.45;3.03;;;;;;;7.68;46.00;100822.38;5020603;28;20077;-67
2022/03/21 02:13:34;;;;;;;14.10;3.38;;;;;;;7.69;46.15;100829.47;5031464;28;20050;-66
2022/03/21 02:16:01;;;;;;;14.02;3.70;;;;;;;7.67;46.16;100823.44;5024066;28;20528;-66
2022/03/21 02:18:29;;;;;;;12.52;3.35;;;;;;;7.59;46.34;100818.28;5024085;28;20045;-67
2022/03/21 02:20:59;;;;;;;18.55;3.88;;;;;;;7.57;46.31;100807.66;5024438;28;20051;-65
2022/03/21 02:23:36;;;;;;;16.55;4.05;;;;;;;7.60;46.37;100812.63;5023829;28;20133;-70
2022/03/21 02:26:03;;;;;;;17.50;4.85;;;;;;;7.54;46.57;100807.28;5029526;28;20056;-70
2022/03/21 02:28:31;;;;;;;14.57;3.72;;;;;;;7.49;46.78;100805.25;5030271;28;20504;-70
2022/03/21 02:30:58;;;;;;;13.68;3.50;;;;;;;7.40;46.63;100795.72;5022586;28;20560;-72
2022/03/21 02:33:26;;;;;;;15.20;3.80;;;;;;;7.39;46.50;100786.75;5013625;28;20355;-71
2022/03/21 02:35:56;;;;;;;15.27;3.88;;;;;;;7.44;46.57;100816.00;5027367;28;20049;-71
2022/03/21 02:38:25;;;;;;;15.70;3.60;;;;;;;7.45;46.70;100813.03;5019532;28;20137;-71
2022/03/21 02:40:51;;;;;;;17.08;3.95;;;;;;;7.40;46.68;100821.06;5025653;28;20056;-71
2022/03/21 02:43:18;;;;;;;15.88;3.30;;;;;;;7.34;47.12;100821.97;5022343;28;20053;-71
2022/03/21 02:45:44;;;;;;;15.90;3.92;;;;;;;7.32;46.97;100822.19;5024456;28;20045;-72
2022/03/21 02:48:14;;;;;;;15.35;3.67;;;;;;;7.27;47.39;100804.88;5026833;28;20060;-72
2022/03/21 02:50:46;;;;;;;20.92;3.85;;;;;;;7.20;47.42;100803.09;5022282;28;20064;-72
2022/03/21 02:53:13;;;;;;;12.65;3.22;;;;;;;7.24;47.46;100817.88;5024751;28;20065;-72
2022/03/21 02:55:40;;;;;;;17.35;4.32;;;;;;;7.28;47.07;100821.00;5024422;28;20052;-71
2022/03/21 02:58:06;;;;;;;14.38;3.58;;;;;;;7.28;47.37;100828.31;5018367;28;20068;-70
2022/03/21 03:00:33;;;;;;;15.52;3.97;;;;;;;7.25;47.42;100818.69;5022199;28;20502;-71
2022/03/21 03:02:59;;;;;;;16.30;4.43;;;;;;;7.21;47.32;100821.06;5029123;28;20049;-70
2022/03/21 03:05:25;;;;;;;17.85;3.85;;;;;;;7.21;47.38;100815.63;5004865;28;20421;-70
2022/03/21 03:07:51;;;;;;;14.98;3.45;;;;;;;7.13;47.71;100812.38;5023027;28;20050;-70
2022/03/21 03:10:18;;;;;;;17.65;3.88;;;;;;;7.17;47.47;100819.03;5022709;28;20473;-71
2022/03/21 03:12:44;;;;;;;17.58;4.00;;;;;;;7.17;47.44;100813.59;5023694;28;20056;-70
2022/03/21 03:15:10;;;;;;;16.90;4.15;;;;;;;7.16;47.59;100815.47;5019886;28;20052;-70
2022/03/21 03:17:37;;;;;;;13.75;3.78;;;;;;;7.08;48.04;100818.50;5026268;28;20045;-70
2022/03/21 03:20:04;;;;;;;15.57;3.80;;;;;;;7.02;47.83;100798.47;5022054;28;20058;-69
2022/03/21 03:22:31;;;;;;;15.93;3.88;;;;;;;7.04;47.91;100799.06;5015462;28;20311;-69
2022/03/21 03:24:57;;;;;;;18.17;4.33;;;;;;;6.97;48.41;100806.50;5021696;28;20068;-73
2022/03/21 03:27:24;;;;;;;14.20;4.50;;;;;;;7.06;47.82;100812.47;5028580;28;20304;-71
2022/03/21 03:29:50;;;;;;;29.65;11.00;;;;;;;7.06;47.98;100810.56;5012066;28;20049;-70
2022/03/21 03:32:16;;;;;;;25.67;11.23;;;;;;;7.06;47.88;100815.19;5026799;28;20080;-70
2022/03/21 03:34:43;;;;;;;62.38;30.40;;;;;;;7.03;48.02;100805.56;5018815;28;20046;-71
2022/03/21 03:37:09;;;;;;;38.57;15.23;;;;;;;7.02;47.80;100803.91;5026974;28;20056;-69
2022/03/21 03:39:36;;;;;;;26.05;9.50;;;;;;;6.91;48.21;100789.19;5027515;28;20103;-71
2022/03/21 03:42:03;;;;;;;23.85;7.30;;;;;;;7.00;48.21;100799.75;5021364;28;20045;-72
2022/03/21 03:44:29;;;;;;;19.20;5.85;;;;;;;6.96;48.17;100799.41;5021249;28;20053;-72
2022/03/21 03:46:55;;;;;;;17.67;4.97;;;;;;;6.97;48.07;100795.63;5017521;28;20092;-73
2022/03/21 03:49:23;;;;;;;16.13;5.05;;;;;;;7.01;48.11;100793.25;5026722;28;20477;-71
2022/03/21 03:51:50;;;;;;;20.90;4.20;;;;;;;7.00;48.11;100787.00;5022541;28;20416;-73
2022/03/21 03:54:16;;;;;;;14.15;4.18;;;;;;;6.94;48.28;100791.44;5021573;28;20056;-72
2022/03/21 03:56:43;;;;;;;14.75;4.10;;;;;;;6.93;48.45;100787.06;5027773;28;20053;-71
2022/03/21 03:59:09;;;;;;;19.00;4.28;;;;;;;6.83;48.72;100780.50;5027325;28;20099;-73
2022/03/21 04:01:37;;;;;;;15.32;3.88;;;;;;;6.87;48.75;100777.13;5023184;28;20056;-73
2022/03/21 04:04:04;;;;;;;16.15;3.88;;;;;;;6.89;48.56;100779.59;5020609;28;20509;-73
2022/03/21 04:06:30;;;;;;;21.05;4.18;;;;;;;6.92;48.48;100779.97;5024009;28;20088;-72
2022/03/21 04:08:58;;;;;;;17.98;4.22;;;;;;;7.05;48.26;100775.44;5025015;28;20037;-73
2022/03/21 04:11:25;;;;;;;13.85;3.67;;;;;;;7.02;48.20;100779.44;5028515;28;20041;-73
2022/03/21 04:13:53;;;;;;;12.30;3.40;;;;;;;7.01;48.38;100776.94;5011843;28;20055;-66
2022/03/21 04:16:19;;;;;;;14.35;3.95;;;;;;;7.04;48.15;100785.47;5019762;28;20527;-66
2022/03/21 04:18:45;;;;;;;16.48;4.22;;;;;;;6.92;48.59;100788.13;5024210;28;20041;-68
2022/03/21 04:21:12;;;;;;;14.80;3.70;;;;;;;6.93;48.70;100784.34;5024603;28;20049;-68
2022/03/21 04:23:38;;;;;;;22.63;9.15;;;;;;;6.92;48.63;100799.00;5025137;28;20065;-68
2022/03/21 04:26:05;;;;;;;18.95;6.75;;;;;;;6.97;48.54;100786.63;5023100;28;20390;-67
2022/03/21 04:28:31;;;;;;;16.00;5.18;;;;;;;7.00;48.50;100789.72;5024820;28;20073;-68
2022/03/21 04:30:58;;;;;;;15.60;4.30;;;;;;;7.14;48.25;100789.56;5021447;28;20045;-68
2022/03/21 04:33:24;;;;;;;17.30;4.70;;;;;;;7.08;48.17;100785.88;5026467;28;20096;-68
2022/03/21 04:35:50;;;;;;;22.65;4.20;;;;;;;7.14;48.31;100784.13;5019663;28;20044;-66
2022/03/21 04:38:17;;;;;;;15.50;4.10;;;;;;;7.09;48.09;100777.47;5025067;28;20141;-67
2022/03/21 04:40:45;;;;;;;15.53;3.67;;;;;;;7.12;48.06;100783.53;5023081;28;20045;-67
2022/03/21 04:43:13;;;;;;;17.52;4.03;;;;;;;7.23;47.88;100785.47;5018322;28;20771;-67
2022/03/21 04:45:40;;;;;;;16.50;3.97;;;;;;;7.17;48.10;100789.09;5018097;28;20581;-72
2022/03/21 04:48:06;;;;;;;16.73;3.97;;;;;;;7.17;48.13;100787.19;5018473;28;20054;-72
2022/03/21 04:50:32;;;;;;;16.52;4.22;;;;;;;7.23;48.09;100780.88;5027104;28;20067;-72
2022/03/21 04:52:59;;;;;;;19.95;5.10;;;;;;;7.19;48.11;100782.38;5027572;28;20556;-72
2022/03/21 04:55:25;;;;;;;16.92;4.40;;;;;;;7.37;47.67;100777.97;5023553;28;20096;-73
2022/03/21 04:57:52;;;;;;;15.07;3.80;;;;;;;7.46;47.41;100773.88;5022410;28;20491;-72
2022/03/21 05:00:18;;;;;;;18.98;4.10;;;;;;;7.45;47.45;100782.28;5026373;28;20052;-73
2022/03/21 05:02:45;;;;;;;14.80;4.00;;;;;;;7.41;47.59;100783.78;5028070;28;20049;-72
2022/03/21 05:05:11;;;;;;;21.73;4.18;;;;;;;7.50;47.45;100779.69;5025914;28;20053;-72
2022/03/21 05:07:41;;;;;;;15.45;3.70;;;;;;;7.48;47.36;100774.47;5039667;28;20595;-73
2022/03/21 05:10:08;;;;;;;16.25;4.10;;;;;;;7.62;47.27;100779.72;5029429;28;20567;-72
2022/03/21 05:12:35;;;;;;;15.27;4.20;;;;;;;7.59;47.54;100786.47;5028264;28;20059;-72
2022/03/21 05:15:04;;;;;;;18.80;4.38;;;;;;;7.56;47.50;100770.59;5023523;28;20129;-71
2022/03/21 05:17:32;;;;;;;15.35;4.20;;;;;;;7.67;47.31;100785.31;5030302;28;20111;-70
2022/03/21 05:19:58;;;;;;;19.38;4.15;;;;;;;7.72;47.38;100780.00;5031739;28;20054;-72
2022/03/21 05:22:25;;;;;;;16.75;4.00;;;;;;;7.79;47.17;100779.91;5030728;28;20548;-71
2022/03/21 05:35:55;;;;;;;17.17;5.25;;;;;;;7.94;47.78;100776.75;5022919;28;20050;-71
2022/03/21 05:38:23;;;;;;;16.33;4.15;;;;;;;8.03;47.52;100782.69;5028939;28;20049;-71
2022/03/21 05:40:49;;;;;;;17.15;4.50;;;;;;;8.01;47.86;100771.19;5019134;28;20501;-71
2022/03/21 05:43:15;;;;;;;16.08;4.40;;;;;;;7.96;47.90;100769.19;5020602;28;20053;-72
2022/03/21 05:45:42;;;;;;;19.13;4.82;;;;;;;8.19;47.97;100786.63;5026758;28;20299;-72
2022/03/21 05:50:53;;;;;;;19.35;4.75;;;;;;;8.21;47.37;100762.69;5050958;28;20057;-71
2022/03/21 05:53:19;;;;;;;19.48;4.78;;;;;;;8.46;47.21;100789.72;5031879;28;20057;-72
2022/03/21 05:55:46;;;;;;;18.85;4.90;;;;;;;8.65;46.89;100797.81;5031512;28;20049;-70
2022/03/21 05:58:12;;;;;;;23.30;5.75;;;;;;;8.76;46.77;100785.25;5032195;28;20131;-71
2022/03/21 06:00:39;;;;;;;23.63;4.97;;;;;;;8.85;47.00;100794.72;5032110;28;20072;-70
2022/03/21 06:03:08;;;;;;;18.27;4.68;;;;;;;8.74;47.35;100766.41;5031594;28;20209;-71
2022/03/21 06:05:35;;;;;;;17.10;5.22;;;;;;;8.90;47.23;100802.19;5032646;28;20049;-71
2022/03/21 06:08:02;;;;;;;;;;;;;;;8.98;47.14;100787.34;5033021;28;20501;-72
2022/03/21 06:10:29;;;;;;;17.42;4.53;;;;;;;8.91;46.83;100801.13;5031280;28;19967;-80
2022/03/21 06:12:55;;;;;;;16.27;4.65;;;;;;;8.98;46.80;100798.28;5031113;28;20045;-71
2022/03/21 06:15:22;;;;;;;15.88;4.75;;;;;;;9.07;47.11;100797.66;5032158;28;20119;-72
2022/03/21 06:17:48;;;;;;;15.63;4.38;;;;;;;9.19;46.84;100794.88;5032015;28;20084;-71
2022/03/21 06:20:16;;;;;;;20.77;4.63;;;;;;;9.26;46.38;100792.03;5027982;28;20037;-72
2022/03/21 06:22:43;;;;;;;23.98;5.38;;;;;;;9.30;46.32;100789.66;5028568;28;20420;-72
2022/03/21 06:25:10;;;;;;;19.70;4.95;;;;;;;9.30;46.39;100784.19;5030012;28;20091;-71
2022/03/21 06:27:38;;;;;;;17.65;4.70;;;;;;;9.41;46.50;100782.50;5030221;28;20115;-74
2022/03/21 06:30:06;;;;;;;15.43;4.47;;;;;;;9.45;45.93;100787.22;5025098;28;20065;-74
2022/03/21 06:32:32;;;;;;;17.45;4.55;;;;;;;9.55;45.78;100785.78;5023656;28;20140;-74
2022/03/21 06:34:59;;;;;;;19.10;5.22;;;;;;;9.63;45.69;100788.09;5029657;28;20088;-74
2022/03/21 06:37:25;;;;;;;19.83;5.15;;;;;;;9.62;45.28;100776.38;5022090;28;21669;-74
2022/03/21 06:39:52;;;;;;;18.58;5.25;;;;;;;9.75;45.24;100777.97;5025768;28;20509;-73
2022/03/21 06:42:21;;;;;;;19.02;5.22;;;;;;;9.88;45.25;100779.53;5025732;28;20081;-68
2022/03/21 06:44:48;;;;;;;17.35;5.20;;;;;;;9.85;44.87;100768.31;5024230;28;20060;-69
2022/03/21 06:47:15;;;;;;;23.48;5.22;;;;;;;9.94;44.66;100769.53;5017846;28;20045;-69
2022/03/21 06:49:41;;;;;;;17.70;4.65;;;;;;;9.98;44.43;100781.63;5019330;28;20480;-68
2022/03/21 06:52:08;;;;;;;24.73;5.25;;;;;;;10.01;44.47;100766.66;5022018;28;20077;-70
2022/03/21 06:54:34;;;;;;;16.83;5.28;;;;;;;10.06;43.98;100767.56;5021055;28;20053;-70
2022/03/21 06:57:01;;;;;;;30.63;5.47;;;;;;;10.05;44.04;100776.00;5022795;28;20053;-68
2022/03/21 06:59:29;;;;;;;20.38;5.32;;;;;;;10.15;44.01;100772.63;5025308;28;20296;-68
2022/03/21 07:01:55;;;;;;;20.05;5.20;;;;;;;10.16;43.45;100772.38;5028378;28;20087;-70
2022/03/21 07:04:21;;;;;;;16.63;4.70;;;;;;;10.27;43.37;100773.34;5029096;28;20530;-70
2022/03/21 07:06:47;;;;;;;21.17;5.60;;;;;;;10.41;43.26;100773.88;5028667;28;20331;-69
2022/03/21 07:09:14;;;;;;;18.38;4.93;;;;;;;10.44;43.34;100769.81;5029137;28;20068;-71
2022/03/21 07:11:39;;;;;;;17.90;4.75;;;;;;;10.55;43.10;100759.88;5027499;28;20115;-67
2022/03/21 07:14:06;;;;;;;21.98;5.18;;;;;;;10.61;42.95;100767.91;5029256;28;20049;-68
2022/03/21 07:16:32;;;;;;;18.58;5.88;;;;;;;10.73;42.45;100769.69;5029111;28;20135;-68
2022/03/21 07:18:59;;;;;;;17.20;4.88;;;;;;;10.78;42.44;100772.50;5027987;28;20057;-68
2022/03/21 07:21:25;;;;;;;27.88;5.22;;;;;;;10.78;42.23;100756.09;5030322;28;20080;-68
2022/03/21 07:23:51;;;;;;;21.05;5.18;;;;;;;10.89;42.04;100766.06;5026820;28;20083;-67
2022/03/21 07:26:18;;;;;;;17.27;4.60;;;;;;;10.98;42.04;100760.19;5029749;28;20084;-66
2022/03/21 07:28:44;;;;;;;19.67;5.82;;;;;;;11.07;41.82;100766.84;5027479;28;20152;-69
2022/03/21 07:31:12;;;;;;;18.27;5.00;;;;;;;11.23;41.31;100769.75;5028834;28;20144;-67
2022/03/21 07:33:38;;;;;;;19.15;5.60;;;;;;;11.28;41.40;100759.72;5024649;28;20053;-69
2022/03/21 07:36:06;;;;;;;19.85;5.10;;;;;;;11.34;40.88;100752.38;5029806;28;20053;-67
2022/03/21 07:38:32;;;;;;;23.88;5.85;;;;;;;11.39;40.47;100746.97;5023758;28;20065;-67
2022/03/21 07:40:59;;;;;;;20.25;5.78;;;;;;;11.49;40.06;100754.47;5029915;28;20112;-66
2022/03/21 07:43:25;;;;;;;20.13;5.70;;;;;;;11.45;39.85;100743.22;5029788;28;20049;-67
2022/03/21 07:48:37;;;;;;;24.45;5.78;;;;;;;11.60;39.03;100752.66;5030148;28;20045;-67
2022/03/21 07:51:04;;;;;;;26.70;5.33;;;;;;;11.72;38.80;100745.13;5029785;28;20052;-67
2022/03/21 07:53:31;;;;;;;22.30;5.97;;;;;;;11.83;38.70;100737.81;5024300;28;20111;-66
2022/03/21 07:55:59;;;;;;;16.27;5.03;;;;;;;11.92;38.52;100738.97;5025909;28;20429;-68
2022/03/21 07:58:26;;;;;;;24.75;4.90;;;;;;;12.02;38.00;100732.81;5028753;28;20615;-68
2022/03/21 08:00:52;;;;;;;16.38;4.43;;;;;;;12.11;37.90;100744.13;5018771;28;20115;-67
2022/03/21 08:03:19;;;;;;;30.40;4.93;;;;;;;12.18;37.54;100749.38;5012138;28;20136;-66
2022/03/21 08:05:46;;;;;;;27.10;5.70;;;;;;;12.24;37.32;100745.56;5005380;28;20049;-65
2022/03/21 08:08:14;;;;;;;18.08;4.53;;;;;;;12.32;37.26;100742.31;5020522;28;20049;-66
2022/03/21 08:10:40;;;;;;;26.17;5.45;;;;;;;12.43;37.04;100739.66;5020829;28;20041;-65
2022/03/21 08:13:08;;;;;;;18.60;4.65;;;;;;;12.50;36.82;100747.66;5026712;28;20069;-66
2022/03/21 08:15:36;;;;;;;23.55;4.70;;;;;;;12.61;36.41;100741.16;5016002;28;20057;-67
2022/03/21 08:18:03;;;;;;;21.52;5.55;;;;;;;12.68;36.13;100757.38;5029310;28;20049;-66
2022/03/21 08:20:33;;;;;;;17.92;4.60;;;;;;;12.64;35.85;100713.19;5028051;28;20041;-65
2022/03/21 08:23:01;;;;;;;18.70;4.93;;;;;;;12.85;35.52;100748.94;5023278;28;20045;-66
2022/03/21 08:25:27;;;;;;;19.83;5.65;;;;;;;12.95;35.32;100746.25;5030273;28;20053;-65
2022/03/21 08:27:54;;;;;;;18.75;5.20;;;;;;;13.09;35.21;100763.06;5029674;28;20053;-66
2022/03/21 08:30:21;;;;;;;18.25;5.55;;;;;;;13.16;35.10;100749.91;5028954;28;20068;-67
2022/03/21 08:32:48;;;;;;;22.45;5.85;;;;;;;13.27;34.96;100758.22;5028249;28;20053;-66
2022/03/21 08:35:15;;;;;;;24.63;4.93;;;;;;;13.40;34.68;100759.59;5021814;28;20543;-66
2022/03/21 08:37:42;;;;;;;19.45;5.05;;;;;;;13.48;34.42;100750.84;5026870;28;20057;-66
2022/03/21 08:40:10;;;;;;;22.20;5.90;;;;;;;13.53;34.00;100753.63;5025734;28;20052;-66
2022/03/21 08:42:37;;;;;;;22.27;5.55;;;;;;;13.67;34.07;100751.16;5028488;28;20413;-66
2022/03/21 08:45:05;;;;;;;21.55;5.30;;;;;;;13.74;33.88;100754.50;5028437;28;20493;-65
2022/03/21 08:47:31;;;;;;;20.63;5.65;;;;;;;13.81;33.67;100750.66;5024688;28;20510;-67
2022/03/21 08:49:58;;;;;;;17.58;5.03;;;;;;;13.92;33.69;100745.97;5016664;28;20049;-67
2022/03/21 08:52:24;;;;;;;17.77;5.35;;;;;;;14.04;33.25;100746.53;5028232;28;20065;-72
2022/03/21 08:54:51;;;;;;;22.65;5.72;;;;;;;14.15;33.07;100745.44;5030921;28;20142;-76
2022/03/21 08:57:17;;;;;;;17.85;4.78;;;;;;;14.22;32.98;100731.41;5020681;28;20536;-74
2022/03/21 08:59:45;;;;;;;17.45;5.30;;;;;;;14.36;32.74;100739.91;5029614;28;20050;-71
2022/03/21 09:02:13;;;;;;;23.33;5.38;;;;;;;14.44;32.42;100739.34;5031904;28;20448;-71
2022/03/21 09:04:39;;;;;;;;;;;;;;;14.58;32.40;100738.75;5028177;28;20078;-71
2022/03/21 09:07:08;;;;;;;22.33;6.55;;;;;;;14.71;32.04;100731.84;5028230;28;19925;-72
2022/03/21 09:09:34;;;;;;;22.13;5.82;;;;;;;14.84;31.95;100725.78;5023121;28;20064;-71
2022/03/21 09:12:01;;;;;;;26.42;5.72;;;;;;;14.94;31.48;100722.16;5017920;28;20111;-72
2022/03/21 09:14:28;;;;;;;;;;;;;;;15.08;31.14;100725.13;5025706;28;20539;-71
2022/03/21 09:16:57;;;;;;;17.48;4.32;;;;;;;15.12;31.17;100722.63;5023138;28;19925;-72
2022/03/21 09:19:24;;;;;;;22.13;5.05;;;;;;;15.28;30.71;100726.94;5026466;28;20136;-69
2022/03/21 09:21:51;;;;;;;17.57;4.53;;;;;;;15.46;30.58;100719.13;5024885;28;20057;-73
2022/03/21 09:24:17;;;;;;;22.88;5.57;;;;;;;15.59;30.22;100718.50;5023261;28;20802;-72
2022/03/21 09:26:44;;;;;;;24.38;5.97;;;;;;;15.69;29.77;100716.78;5022285;28;20042;-73
2022/03/21 09:29:11;;;;;;;20.98;5.97;;;;;;;15.83;29.62;100725.22;5015414;28;20054;-72
2022/03/21 09:31:40;;;;;;;22.40;5.50;;;;;;;15.95;29.30;100720.19;5025495;28;20041;-73
2022/03/21 09:34:06;;;;;;;24.00;4.90;;;;;;;16.07;29.36;100706.00;5022939;28;20056;-72
2022/03/21 09:36:32;;;;;;;22.73;4.03;;;;;;;16.15;29.17;100710.88;5019542;28;20041;-73
2022/03/21 09:38:59;;;;;;;21.55;5.15;;;;;;;16.30;28.67;100720.97;5026849;28;20041;-71
2022/03/21 09:41:27;;;;;;;18.70;5.28;;;;;;;16.42;28.56;100726.09;5021309;28;20076;-72
2022/03/21 09:43:54;;;;;;;20.10;5.05;;;;;;;16.55;28.39;100721.00;5026673;28;20041;-72
2022/03/21 09:46:21;;;;;;;16.70;5.43;;;;;;;16.60;28.43;100715.41;5013265;28;20042;-72
2022/03/21 09:48:49;;;;;;;21.50;5.80;;;;;;;16.68;27.65;100700.13;5017898;28;20050;-71
2022/03/21 09:51:21;;;;;;;23.70;5.13;;;;;;;16.77;27.87;100712.19;5023315;28;20053;-72
2022/03/21 09:53:48;;;;;;;20.23;4.35;;;;;;;16.92;27.57;100710.34;5023296;28;20049;-71
2022/03/21 09:56:14;;;;;;;21.90;4.70;;;;;;;16.91;27.94;100698.47;5017944;28;20509;-71
2022/03/21 09:58:40;;;;;;;24.98;5.32;;;;;;;17.14;27.50;100704.31;5032344;28;20056;-71
2022/03/21 10:01:06;;;;;;;20.30;4.55;;;;;;;17.15;27.06;100705.94;5031699;28;20049;-71
2022/03/21 10:03:35;;;;;;;15.82;3.97;;;;;;;17.21;27.26;100707.50;5030683;28;20517;-71
2022/03/21 10:06:01;;;;;;;22.70;4.38;;;;;;;17.35;26.90;100704.00;5030043;28;20057;-71
2022/03/21 10:08:28;;;;;;;18.95;4.78;;;;;;;17.47;26.60;100707.16;5026428;28;20498;-72
2022/03/21 10:10:59;;;;;;;21.23;4.38;;;;;;;17.56;26.55;100705.34;5028353;28;20056;-72
2022/03/21 10:13:29;;;;;;;16.77;5.18;;;;;;;17.54;26.32;100698.47;5029254;28;20049;-72
2022/03/21 10:16:13;;;;;;;22.58;5.60;;;;;;;17.58;26.12;100708.63;5029110;28;20107;-71
2022/03/21 10:18:56;;;;;;;18.42;4.55;;;;;;;17.74;25.94;100715.84;5020046;28;20049;-72
2022/03/21 10:21:24;;;;;;;12.55;3.88;;;;;;;17.83;25.66;100714.06;5027007;28;20056;-71
2022/03/21 10:23:58;;;;;;;19.20;3.92;;;;;;;17.98;25.26;100707.44;5026520;28;20045;-71
2022/03/21 10:26:28;;;;;;;15.55;4.13;;;;;;;18.00;25.32;100703.25;5020229;28;20057;-72
2022/03/21 10:28:56;;;;;;;13.88;4.00;;;;;;;18.12;25.09;100693.69;5025640;28;20045;-73
2022/03/21 10:31:34;;;;;;;18.50;4.00;;;;;;;18.19;25.32;100699.63;5008011;28;20056;-73
2022/03/21 10:34:01;;;;;;;13.23;3.67;;;;;;;18.31;25.49;100703.88;5028620;28;20064;-73
2022/03/21 10:36:28;;;;;;;13.98;4.45;;;;;;;18.39;25.87;100698.44;5023267;28;20075;-73
2022/03/21 10:39:06;;;;;;;20.40;3.78;;;;;;;18.51;25.64;100694.34;5021160;28;20096;-73
2022/03/21 10:41:34;;;;;;;20.52;3.85;;;;;;;18.57;25.66;100709.72;5020276;28;20053;-74
2022/03/21 10:44:01;;;;;;;19.73;3.97;;;;;;;18.70;25.92;100717.22;5028961;28;20073;-73
2022/03/21 10:46:27;;;;;;;18.08;4.82;;;;;;;18.66;25.78;100685.75;5023506;28;20481;-73
2022/03/21 10:49:00;;;;;;;20.40;3.67;;;;;;;18.84;25.74;100708.91;5030041;28;20103;-73
2022/03/21 10:51:26;;;;;;;17.00;4.40;;;;;;;18.94;25.81;100702.31;5031290;28;20057;-72
2022/03/21 10:53:53;;;;;;;19.10;4.75;;;;;;;18.97;25.56;100693.41;5008001;28;20045;-72
2022/03/21 10:56:19;;;;;;;19.10;4.37;;;;;;;19.09;25.24;100698.44;5028727;28;20119;-74
2022/03/21 10:58:50;;;;;;;17.60;4.40;;;;;;;19.03;25.33;100688.59;5025167;28;20595;-73
2022/03/21 11:01:18;;;;;;;16.92;4.45;;;;;;;19.10;25.07;100689.00;5022605;28;20075;-72
2022/03/21 11:03:49;;;;;;;16.50;4.07;;;;;;;19.21;25.01;100699.88;5027421;28;20065;-73
2022/03/21 11:06:15;;;;;;;14.25;4.57;;;;;;;19.27;24.31;100699.41;5020819;28;20460;-73
2022/03/21 11:08:44;;;;;;;18.95;3.85;;;;;;;19.42;24.16;100702.97;5020417;28;20473;-72
2022/03/21 11:11:11;;;;;;;18.00;4.20;;;;;;;19.55;24.27;100691.00;5024638;28;20052;-73
2022/03/21 11:13:38;;;;;;;;;;;;;;;19.65;24.17;100687.16;5015452;28;20111;-72
2022/03/21 11:16:04;;;;;;;20.27;4.30;;;;;;;19.73;24.19;100680.03;5022819;28;19936;-73
2022/03/21 11:18:31;;;;;;;18.58;4.78;;;;;;;19.92;23.30;100687.41;5019560;28;20323;-72
2022/03/21 11:20:59;;;;;;;16.03;4.23;;;;;;;20.03;23.21;100687.94;5027582;28;20394;-72
2022/03/21 11:23:25;;;;;;;16.52;4.22;;;;;;;20.17;22.90;100679.53;5030055;28;20393;-72
2022/03/21 11:25:56;;;;;;;17.40;3.70;;;;;;;20.39;22.14;100689.75;5027325;28;20056;-71
2022/03/21 11:29:04;;;;;;;11.82;3.63;;;;;;;20.74;21.59;100689.06;5023203;28;20048;-72
2022/03/21 11:32:04;;;;;;;13.95;3.42;;;;;;;21.12;20.94;100674.63;5033416;28;20053;-72
2022/03/21 11:34:43;;;;;;;23.25;4.00;;;;;;;21.39;20.67;100673.50;4993711;28;20115;-71
2022/03/21 11:37:24;;;;;;;16.48;3.75;;;;;;;21.81;20.59;100678.56;5015036;28;20049;-72
2022/03/21 11:40:23;;;;;;;14.20;3.95;;;;;;;22.23;20.54;100686.31;5024726;28;20075;-72
2022/03/21 11:42:50;;;;;;;12.95;3.92;;;;;;;22.45;20.65;100676.06;5021508;28;20123;-72